createdAt,value
2018-11-25T00:00:18.191Z,98055.63
2018-11-25T00:02:30.459Z,98054.57
2018-11-25T00:04:42.651Z,98053.88
2018-11-25T00:06:54.856Z,98052.96
2018-11-25T00:09:07.832Z,98043.61
2018-11-25T00:11:20.053Z,98041.44
2018-11-25T00:13:32.299Z,98042.50
2018-11-25T00:15:44.475Z,98046.00
2018-11-25T00:17:56.719Z,98030.42
2018-11-25T00:20:11.749Z,98040.11
2018-11-25T00:22:23.947Z,98038.30
2018-11-25T00:24:36.152Z,98038.50
2018-11-25T00:26:48.303Z,98040.66
2018-11-25T00:29:00.539Z,98032.50
2018-11-25T00:31:12.728Z,98034.48
2018-11-25T00:33:24.901Z,98031.30
2018-11-25T00:35:37.095Z,98037.44
2018-11-25T00:37:49.276Z,98045.41
2018-11-25T00:40:01.492Z,98037.48
2018-11-25T00:42:13.671Z,98034.75
2018-11-25T00:44:25.864Z,98033.55
2018-11-25T00:46:38.052Z,98038.02
2018-11-25T00:48:50.267Z,98029.58
2018-11-25T00:51:02.493Z,98032.75
2018-11-25T00:53:14.644Z,98030.94
2018-11-25T00:55:26.888Z,98030.97
2018-11-25T00:57:39.095Z,98025.83
2018-11-25T00:59:51.303Z,98026.44
2018-11-25T01:02:03.599Z,98023.38
2018-11-25T01:04:15.785Z,98024.09
2018-11-25T01:06:27.973Z,98030.21
2018-11-25T01:08:40.163Z,98029.17
2018-11-25T01:10:52.924Z,98030.96
2018-11-25T01:13:05.184Z,98031.48
2018-11-25T01:15:17.668Z,98032.11
2018-11-25T01:17:29.887Z,98025.75
2018-11-25T01:19:42.083Z,98030.06
2018-11-25T01:21:54.265Z,98028.52
2018-11-25T01:24:06.436Z,98023.49
2018-11-25T01:26:18.650Z,98029.27
2018-11-25T01:28:30.839Z,98024.38
2018-11-25T01:30:43.043Z,98019.97
2018-11-25T01:32:55.205Z,98028.50
2018-11-25T01:35:08.532Z,98022.33
2018-11-25T01:37:20.756Z,98022.80
2018-11-25T01:39:32.967Z,98023.44
2018-11-25T01:41:45.133Z,98017.58
2018-11-25T01:43:57.306Z,98008.69
2018-11-25T01:46:09.525Z,98009.19
2018-11-25T01:48:21.691Z,98006.34
2018-11-25T01:50:33.864Z,98001.09
2018-11-25T01:52:46.601Z,97998.41
2018-11-25T01:54:58.758Z,97994.92
2018-11-25T01:57:10.945Z,97994.92
2018-11-25T01:59:23.128Z,97991.18
2018-11-25T02:01:35.316Z,97985.58
2018-11-25T02:03:47.534Z,97983.19
2018-11-25T02:05:59.711Z,97981.41
2018-11-25T02:08:11.921Z,97978.00
2018-11-25T02:10:24.140Z,97971.45
2018-11-25T02:12:36.364Z,97969.14
2018-11-25T02:14:48.611Z,97970.17
2018-11-25T02:17:00.847Z,97967.57
2018-11-25T02:19:13.028Z,97967.19
2018-11-25T02:21:25.214Z,97962.83
2018-11-25T02:23:37.409Z,97965.80
2018-11-25T02:25:49.596Z,97953.31
2018-11-25T02:28:01.808Z,97950.48
2018-11-25T02:30:14.893Z,97945.34
2018-11-25T02:32:27.048Z,97953.18
2018-11-25T02:34:39.216Z,97949.40
2018-11-25T02:36:51.400Z,97942.59
2018-11-25T02:39:05.361Z,97934.42
2018-11-25T02:41:17.552Z,97935.00
2018-11-25T02:43:29.748Z,97932.94
2018-11-25T02:45:41.934Z,97930.89
2018-11-25T02:47:54.107Z,97926.05
2018-11-25T02:50:25.092Z,97925.67
2018-11-25T02:52:37.276Z,97925.86
2018-11-25T02:54:49.446Z,97922.27
2018-11-25T02:57:01.660Z,97917.45
2018-11-25T02:59:13.896Z,97922.44
2018-11-25T03:01:26.036Z,97915.01
2018-11-25T03:03:38.213Z,97916.01
2018-11-25T03:05:50.438Z,97916.01
2018-11-25T03:08:02.623Z,97914.02
2018-11-25T03:10:14.836Z,97914.88
2018-11-25T03:12:27.036Z,97913.72
2018-11-25T03:14:39.206Z,97913.64
2018-11-25T03:16:51.445Z,97911.27
2018-11-25T03:19:03.644Z,97906.36
2018-11-25T03:21:15.837Z,97907.63
2018-11-25T03:23:27.960Z,97910.19
2018-11-25T03:25:40.168Z,97911.03
2018-11-25T03:27:52.362Z,97904.84
2018-11-25T03:30:08.747Z,97910.88
2018-11-25T03:32:20.936Z,97904.13
2018-11-25T03:34:33.079Z,97905.75
2018-11-25T03:36:45.238Z,97901.30
2018-11-25T03:38:57.421Z,97901.05
2018-11-25T03:41:09.628Z,97905.48
2018-11-25T03:43:21.807Z,97899.50
2018-11-25T03:45:33.974Z,97907.41
2018-11-25T03:47:46.209Z,97900.20
2018-11-25T03:49:58.404Z,97902.45
2018-11-25T03:52:10.576Z,97903.83
2018-11-25T03:54:22.750Z,97898.29
2018-11-25T03:56:34.901Z,97902.86
2018-11-25T03:58:47.093Z,97904.75
2018-11-25T04:00:59.300Z,97909.70
2018-11-25T04:03:11.484Z,97911.85
2018-11-25T04:05:23.643Z,97913.93
2018-11-25T04:07:35.835Z,97907.23
2018-11-25T04:09:48.046Z,97912.40
2018-11-25T04:12:00.226Z,97906.63
2018-11-25T04:14:12.436Z,97912.02
2018-11-25T04:16:24.623Z,97906.67
2018-11-25T04:18:36.803Z,97905.78
2018-11-25T04:20:48.980Z,97899.27
2018-11-25T04:23:01.148Z,97893.62
2018-11-25T04:25:13.488Z,97889.16
2018-11-25T04:27:25.652Z,97882.14
2018-11-25T04:29:37.867Z,97880.06
2018-11-25T04:31:50.043Z,97885.78
2018-11-25T04:34:02.227Z,97878.04
2018-11-25T04:36:14.464Z,97877.50
2018-11-25T04:38:26.639Z,97879.97
2018-11-25T04:40:38.868Z,97880.86
2018-11-25T04:42:51.278Z,97876.70
2018-11-25T04:45:03.756Z,97881.59
2018-11-25T04:47:15.966Z,97883.55
2018-11-25T04:49:28.112Z,97880.73
2018-11-25T04:51:40.295Z,97882.98
2018-11-25T04:53:52.480Z,97880.73
2018-11-25T04:56:05.263Z,97884.95
2018-11-25T04:58:17.431Z,97881.95
2018-11-25T05:00:29.656Z,97882.81
2018-11-25T05:02:41.836Z,97876.14
2018-11-25T05:04:54.037Z,97871.94
2018-11-25T05:07:06.530Z,97873.77
2018-11-25T05:09:18.759Z,97870.45
2018-11-25T05:11:30.938Z,97869.88
2018-11-25T05:13:43.110Z,97871.09
2018-11-25T05:15:55.363Z,97871.62
2018-11-25T05:18:07.559Z,97875.69
2018-11-25T05:20:19.970Z,97877.28
2018-11-25T05:22:32.164Z,97877.86
2018-11-25T05:24:44.379Z,97870.72
2018-11-25T05:26:56.561Z,97868.24
2018-11-25T05:29:08.755Z,97859.31
2018-11-25T05:31:20.916Z,97860.66
2018-11-25T05:33:33.098Z,97856.09
2018-11-25T05:35:45.293Z,97857.78
2018-11-25T05:37:57.490Z,97862.48
2018-11-25T05:40:10.551Z,97854.73
2018-11-25T05:42:22.751Z,97857.18
2018-11-25T05:44:34.979Z,97853.14
2018-11-25T05:46:47.146Z,97850.06
2018-11-25T05:48:59.327Z,97850.33
2018-11-25T05:51:11.495Z,97850.48
2018-11-25T05:53:23.689Z,97848.39
2018-11-25T05:55:35.856Z,97843.86
2018-11-25T05:57:48.053Z,97845.67
2018-11-25T06:00:00.254Z,97854.70
2018-11-25T06:02:12.457Z,97856.75
2018-11-25T06:04:24.639Z,97853.50
2018-11-25T06:06:36.812Z,97857.78
2018-11-25T06:08:49.023Z,97855.22
2018-11-25T06:11:01.237Z,97853.97
2018-11-25T06:13:13.399Z,97848.98
2018-11-25T06:15:25.580Z,97855.41
2018-11-25T06:17:37.755Z,97862.99
2018-11-25T06:19:49.947Z,97861.64
2018-11-25T06:22:02.110Z,97859.06
2018-11-25T06:24:14.335Z,97857.41
2018-11-25T06:26:26.520Z,97859.81
2018-11-25T06:28:38.764Z,97862.53
2018-11-25T06:30:50.943Z,97855.56
2018-11-25T06:33:03.115Z,97851.36
2018-11-25T06:35:16.250Z,97862.37
2018-11-25T06:37:28.427Z,97859.64
2018-11-25T06:39:40.618Z,97853.39
2018-11-25T06:41:52.818Z,97854.64
2018-11-25T06:44:05.432Z,97853.61
2018-11-25T06:46:17.624Z,97860.70
2018-11-25T06:48:29.815Z,97856.79
2018-11-25T06:50:42.027Z,97855.44
2018-11-25T06:52:54.258Z,97851.52
2018-11-25T06:55:07.872Z,97852.37
2018-11-25T06:57:20.061Z,97851.75
2018-11-25T06:59:32.224Z,97852.34
2018-11-25T07:01:44.408Z,97854.14
2018-11-25T07:03:56.579Z,97849.03
2018-11-25T07:06:08.789Z,97850.69
2018-11-25T07:08:20.943Z,97851.91
2018-11-25T07:10:33.178Z,97857.46
2018-11-25T07:12:45.606Z,97857.85
2018-11-25T07:14:57.800Z,97854.00
2018-11-25T07:17:10.008Z,97851.36
2018-11-25T07:19:22.201Z,97850.86
2018-11-25T07:21:34.431Z,97847.77
2018-11-25T07:23:46.635Z,97847.61
2018-11-25T07:25:58.869Z,97841.11
2018-11-25T07:28:18.314Z,97846.20
2018-11-25T07:30:24.254Z,97850.95
2018-11-25T07:32:36.469Z,97842.00
2018-11-25T07:34:48.673Z,97838.66
2018-11-25T07:37:00.872Z,97842.00
2018-11-25T07:39:13.117Z,97840.56
2018-11-25T07:41:25.285Z,97840.41
2018-11-25T07:43:37.507Z,97839.77
2018-11-25T07:45:49.809Z,97833.07
2018-11-25T07:48:02.044Z,97838.63
2018-11-25T07:50:14.321Z,97837.45
2018-11-25T07:52:26.524Z,97830.99
2018-11-25T07:54:38.732Z,97833.83
2018-11-25T07:56:50.960Z,97829.58
2018-11-25T07:59:03.168Z,97831.22
2018-11-25T08:01:15.384Z,97823.81
2018-11-25T08:03:27.587Z,97822.33
2018-11-25T08:05:39.806Z,97829.16
2018-11-25T08:07:51.961Z,97822.95
2018-11-25T08:10:06.875Z,97820.11
2018-11-25T08:12:19.096Z,97819.89
2018-11-25T08:14:31.299Z,97824.38
2018-11-25T08:16:43.504Z,97811.20
2018-11-25T08:18:55.699Z,97803.94
2018-11-25T08:21:07.952Z,97804.27
2018-11-25T08:23:20.142Z,97801.73
2018-11-25T08:25:32.404Z,97791.37
2018-11-25T08:27:44.638Z,97794.36
2018-11-25T08:29:56.868Z,97793.14
2018-11-25T08:32:09.122Z,97787.42
2018-11-25T08:34:21.379Z,97780.55
2018-11-25T08:36:33.511Z,97771.62
2018-11-25T08:38:45.773Z,97765.07
2018-11-25T08:40:57.972Z,97762.42
2018-11-25T08:43:10.170Z,97751.94
2018-11-25T08:45:22.438Z,97755.41
2018-11-25T08:47:34.624Z,97751.51
2018-11-25T08:49:46.857Z,97743.73
2018-11-25T08:51:59.123Z,97734.41
2018-11-25T08:54:11.332Z,97728.09
2018-11-25T08:56:23.595Z,97720.29
2018-11-25T08:58:35.788Z,97720.73
2018-11-25T09:00:48.136Z,97711.00
2018-11-25T09:03:00.335Z,97708.97
2018-11-25T09:05:13.638Z,97704.47
2018-11-25T09:07:25.868Z,97703.30
2018-11-25T09:09:38.128Z,97699.41
2018-11-25T09:11:50.363Z,97696.82
2018-11-25T09:14:02.658Z,97695.98
2018-11-25T09:16:14.897Z,97689.31
2018-11-25T09:18:27.161Z,97693.06
2018-11-25T09:20:39.365Z,97695.09
2018-11-25T09:22:51.999Z,97686.66
2018-11-25T09:25:05.177Z,97689.55
2018-11-25T09:27:17.470Z,97682.80
2018-11-25T09:29:29.672Z,97686.25
2018-11-25T09:31:41.977Z,97683.22
2018-11-25T09:33:54.163Z,97678.97
2018-11-25T09:36:06.419Z,97682.88
2018-11-25T09:38:18.672Z,97674.53
2018-11-25T09:40:30.901Z,97676.01
2018-11-25T09:42:43.169Z,97676.01
2018-11-25T09:44:55.363Z,97668.80
2018-11-25T09:47:07.640Z,97665.73
2018-11-25T09:49:19.859Z,97660.97
2018-11-25T09:51:32.061Z,97657.49
2018-11-25T09:53:44.268Z,97649.50
2018-11-25T09:55:56.455Z,97648.94
2018-11-25T09:58:08.658Z,97648.66
2018-11-25T10:00:23.854Z,97641.74
2018-11-25T10:02:36.055Z,97642.91
2018-11-25T10:04:48.287Z,97631.12
2018-11-25T10:07:00.573Z,97633.44
2018-11-25T10:09:12.828Z,97626.91
2018-11-25T10:11:25.108Z,97630.19
2018-11-25T10:13:37.353Z,97633.11
2018-11-25T10:15:49.591Z,97629.58
2018-11-25T10:18:01.855Z,97624.59
2018-11-25T10:20:15.228Z,97615.36
2018-11-25T10:22:27.440Z,97614.30
2018-11-25T10:24:39.668Z,97616.69
2018-11-25T10:26:51.894Z,97616.54
2018-11-25T10:29:04.168Z,97616.89
2018-11-25T10:31:16.387Z,97610.79
2018-11-25T10:33:28.582Z,97609.84
2018-11-25T10:35:40.819Z,97608.40
2018-11-25T10:37:53.114Z,97609.84
2018-11-25T10:40:09.353Z,97606.69
2018-11-25T10:42:21.559Z,97599.26
2018-11-25T10:44:33.754Z,97593.72
2018-11-25T10:46:46.023Z,97587.16
2018-11-25T10:48:58.246Z,97587.34
2018-11-25T10:51:10.503Z,97583.34
2018-11-25T10:53:22.705Z,97580.50
2018-11-25T10:55:35.013Z,97580.70
2018-11-25T10:57:49.000Z,97577.95
2018-11-25T11:00:01.237Z,97573.88
2018-11-25T11:02:18.836Z,97573.80
2018-11-25T11:04:36.692Z,97561.99
2018-11-25T11:06:54.600Z,97563.13
2018-11-25T11:09:06.857Z,97552.95
2018-11-25T11:11:19.099Z,97558.09
2018-11-25T11:13:31.329Z,97555.88
2018-11-25T11:15:43.608Z,97551.20
2018-11-25T11:17:55.836Z,97542.88
2018-11-25T11:20:09.330Z,97540.37
2018-11-25T11:22:21.537Z,97540.45
2018-11-25T11:24:33.745Z,97536.42
2018-11-25T11:26:46.036Z,97535.39
2018-11-25T11:28:58.223Z,97529.84
2018-11-25T11:31:13.438Z,97529.80
2018-11-25T11:33:22.724Z,97523.66
2018-11-25T11:35:34.947Z,97521.73
2018-11-25T11:37:47.246Z,97521.88
2018-11-25T11:39:59.547Z,97513.26
2018-11-25T11:42:11.719Z,97513.70
2018-11-25T11:44:23.987Z,97507.58
2018-11-25T11:46:36.235Z,97503.65
2018-11-25T11:48:48.463Z,97508.84
2018-11-25T11:51:00.670Z,97509.80
2018-11-25T11:53:12.914Z,97503.09
2018-11-25T11:55:25.191Z,97498.50
2018-11-25T11:57:37.484Z,97500.71
2018-11-25T11:59:49.767Z,97497.50
2018-11-25T12:02:01.964Z,97490.09
2018-11-25T12:04:14.200Z,97493.38
2018-11-25T12:06:26.512Z,97496.77
2018-11-25T12:08:38.709Z,97495.47
2018-11-25T12:10:50.944Z,97492.73
2018-11-25T12:13:03.365Z,97490.48
2018-11-25T12:15:30.333Z,97495.12
2018-11-25T12:17:36.188Z,97485.98
2018-11-25T12:19:48.432Z,97490.83
2018-11-25T12:22:00.693Z,97485.98
2018-11-25T12:24:12.915Z,97492.04
2018-11-25T12:26:25.152Z,97492.86
2018-11-25T12:28:37.353Z,97483.98
2018-11-25T12:30:49.599Z,97484.25
2018-11-25T12:33:01.821Z,97480.19
2018-11-25T12:35:15.077Z,97479.41
2018-11-25T12:37:27.298Z,97477.98
2018-11-25T12:39:39.594Z,97477.41
2018-11-25T12:41:51.867Z,97476.80
2018-11-25T12:44:04.110Z,97476.80
2018-11-25T12:46:16.344Z,97471.87
2018-11-25T12:48:28.572Z,97466.20
2018-11-25T12:50:40.799Z,97470.83
2018-11-25T12:52:53.242Z,97470.45
2018-11-25T12:55:07.831Z,97468.66
2018-11-25T12:57:20.096Z,97463.91
2018-11-25T12:59:32.324Z,97468.66
2018-11-25T13:01:44.564Z,97465.25
2018-11-25T13:03:56.778Z,97461.39
2018-11-25T13:06:09.031Z,97454.04
2018-11-25T13:08:21.236Z,97451.78
2018-11-25T13:10:33.487Z,97441.88
2018-11-25T13:12:45.744Z,97449.19
2018-11-25T13:14:57.982Z,97443.38
2018-11-25T13:17:10.255Z,97443.38
2018-11-25T13:19:22.436Z,97438.20
2018-11-25T13:21:34.662Z,97435.51
2018-11-25T13:23:46.932Z,97433.09
2018-11-25T13:25:59.201Z,97432.74
2018-11-25T13:28:11.420Z,97431.31
2018-11-25T13:30:24.850Z,97424.30
2018-11-25T13:32:37.048Z,97424.78
2018-11-25T13:34:49.262Z,97425.86
2018-11-25T13:37:01.519Z,97421.72
2018-11-25T13:39:13.796Z,97429.03
2018-11-25T13:41:26.056Z,97423.39
2018-11-25T13:43:38.327Z,97421.48
2018-11-25T13:45:50.526Z,97426.29
2018-11-25T13:48:02.832Z,97419.07
2018-11-25T13:50:15.131Z,97415.31
2018-11-25T13:52:27.350Z,97417.42
2018-11-25T13:54:39.593Z,97415.52
2018-11-25T13:56:51.820Z,97414.77
2018-11-25T13:59:04.445Z,97413.61
2018-11-25T14:01:16.666Z,97415.47
2018-11-25T14:03:33.559Z,97419.14
2018-11-25T14:05:52.519Z,97413.78
2018-11-25T14:07:58.128Z,97415.55
2018-11-25T14:10:14.053Z,97415.77
2018-11-25T14:12:26.288Z,97425.37
2018-11-25T14:14:38.537Z,97426.15
2018-11-25T14:16:50.840Z,97424.41
2018-11-25T14:19:03.022Z,97433.37
2018-11-25T14:21:15.751Z,97429.60
2018-11-25T14:23:27.496Z,97429.43
2018-11-25T14:25:40.601Z,97432.41
2018-11-25T14:27:54.030Z,97426.02
2018-11-25T14:30:13.410Z,97430.52
2018-11-25T14:32:24.601Z,97431.41
2018-11-25T14:34:36.879Z,97427.25
2018-11-25T14:36:49.157Z,97427.79
2018-11-25T14:39:01.399Z,97428.98
2018-11-25T14:41:13.625Z,97430.58
2018-11-25T14:43:25.866Z,97439.16
2018-11-25T14:45:38.127Z,97433.68
2018-11-25T14:47:50.328Z,97437.63
2018-11-25T14:50:03.083Z,97439.28
2018-11-25T14:52:15.298Z,97444.02
2018-11-25T14:54:27.547Z,97445.38
2018-11-25T14:56:39.820Z,97459.72
2018-11-25T14:58:52.086Z,97448.78
2018-11-25T15:01:04.567Z,97448.95
2018-11-25T15:03:16.767Z,97466.25
2018-11-25T15:05:37.495Z,97471.80
2018-11-25T15:07:49.766Z,97474.57
2018-11-25T15:10:02.021Z,97471.47
2018-11-25T15:12:14.270Z,97470.54
2018-11-25T15:14:26.516Z,97471.84
2018-11-25T15:16:38.799Z,97478.94
2018-11-25T15:18:51.145Z,97469.62
2018-11-25T15:21:03.395Z,97484.31
2018-11-25T15:23:15.978Z,97472.98
2018-11-25T15:25:32.130Z,97471.78
2018-11-25T15:27:44.391Z,97474.66
2018-11-25T15:29:56.676Z,97474.19
2018-11-25T15:32:08.915Z,97476.88
2018-11-25T15:34:21.151Z,97471.72
2018-11-25T15:36:33.479Z,97477.91
2018-11-25T15:38:45.719Z,97478.37
2018-11-25T15:40:57.919Z,97482.45
2018-11-25T15:43:10.804Z,97481.73
2018-11-25T15:45:23.049Z,97489.55
2018-11-25T15:47:35.288Z,97486.27
2018-11-25T15:49:47.540Z,97484.09
2018-11-25T15:51:59.747Z,97486.81
2018-11-25T15:54:12.043Z,97488.96
2018-11-25T15:56:24.313Z,97491.54
2018-11-25T15:58:36.616Z,97497.73
2018-11-25T16:00:48.891Z,97495.62
2018-11-25T16:03:01.093Z,97498.95
2018-11-25T16:05:15.948Z,97498.87
2018-11-25T16:07:28.157Z,97496.59
2018-11-25T16:09:40.491Z,97497.88
2018-11-25T16:11:52.754Z,97496.97
2018-11-25T16:14:05.034Z,97492.03
2018-11-25T16:16:17.261Z,97497.36
2018-11-25T16:18:29.527Z,97497.27
2018-11-25T16:20:41.827Z,97498.93
2018-11-25T16:22:57.502Z,97504.02
2018-11-25T16:25:12.853Z,97504.30
2018-11-25T16:27:25.963Z,97508.01
2018-11-25T16:29:38.244Z,97511.88
2018-11-25T16:31:50.486Z,97507.42
2018-11-25T16:34:02.708Z,97511.34
2018-11-25T16:36:14.937Z,97514.91
2018-11-25T16:38:27.221Z,97513.41
2018-11-25T16:40:39.456Z,97515.27
2018-11-25T16:42:51.655Z,97515.06
2018-11-25T16:45:04.700Z,97515.67
2018-11-25T16:47:16.941Z,97512.48
2018-11-25T16:49:29.128Z,97510.73
2018-11-25T16:51:41.355Z,97515.27
2018-11-25T16:53:53.602Z,97506.41
2018-11-25T16:56:05.924Z,97501.92
2018-11-25T16:58:18.201Z,97500.53
2018-11-25T17:00:30.538Z,97498.69
2018-11-25T17:02:42.834Z,97491.77
2018-11-25T17:04:55.061Z,97493.60
2018-11-25T17:07:07.324Z,97495.81
2018-11-25T17:09:19.557Z,97493.56
2018-11-25T17:11:31.808Z,97494.64
2018-11-25T17:13:44.057Z,97497.18
2018-11-25T17:15:56.299Z,97498.01
2018-11-25T17:18:08.573Z,97497.91
2018-11-25T17:20:20.804Z,97499.45
2018-11-25T17:22:33.005Z,97507.13
2018-11-25T17:24:45.296Z,97503.48
2018-11-25T17:26:57.567Z,97510.02
2018-11-25T17:29:09.836Z,97509.61
2018-11-25T17:31:22.088Z,97508.17
2018-11-25T17:33:34.403Z,97512.91
2018-11-25T17:35:46.611Z,97508.21
2018-11-25T17:37:58.818Z,97506.47
2018-11-25T17:40:11.196Z,97512.50
2018-11-25T17:42:23.383Z,97506.36
2018-11-25T17:44:35.641Z,97510.02
2018-11-25T17:46:47.947Z,97502.91
2018-11-25T17:49:00.208Z,97509.55
2018-11-25T17:51:12.440Z,97508.58
2018-11-25T17:53:24.694Z,97502.28
2018-11-25T17:55:36.925Z,97495.60
2018-11-25T17:57:49.505Z,97502.23
2018-11-25T18:00:03.344Z,97500.80
2018-11-25T18:02:15.743Z,97500.84
2018-11-25T18:04:27.972Z,97498.64
2018-11-25T18:06:40.223Z,97498.11
2018-11-25T18:08:52.452Z,97495.69
2018-11-25T18:11:04.755Z,97496.72
2018-11-25T18:13:18.160Z,97495.69
2018-11-25T18:15:30.445Z,97504.20
2018-11-25T18:17:47.120Z,97501.09
2018-11-25T18:19:59.351Z,97492.08
2018-11-25T18:22:14.189Z,97496.92
2018-11-25T18:24:26.414Z,97499.45
2018-11-25T18:26:38.702Z,97496.88
2018-11-25T18:28:50.943Z,97491.72
2018-11-25T18:31:03.208Z,97500.37
2018-11-25T18:33:15.511Z,97500.33
2018-11-25T18:35:27.866Z,97494.92
2018-11-25T18:37:40.114Z,97497.34
2018-11-25T18:39:52.297Z,97496.16
2018-11-25T18:42:05.071Z,97494.66
2018-11-25T18:44:17.306Z,97505.02
2018-11-25T18:46:29.542Z,97503.67
2018-11-25T18:48:44.223Z,97496.83
2018-11-25T18:50:56.607Z,97498.78
2018-11-25T18:53:09.668Z,97495.54
2018-11-25T18:55:20.832Z,97494.71
2018-11-25T18:57:33.096Z,97496.00
2018-11-25T18:59:45.388Z,97498.02
2018-11-25T19:02:01.001Z,97496.20
2018-11-25T19:04:13.304Z,97492.04
2018-11-25T19:06:25.540Z,97492.34
2018-11-25T19:08:37.840Z,97496.73
2018-11-25T19:10:50.107Z,97491.11
2018-11-25T19:13:02.376Z,97491.88
2018-11-25T19:15:15.902Z,97477.91
2018-11-25T19:17:28.135Z,97479.97
2018-11-25T19:19:40.391Z,97473.52
2018-11-25T19:21:52.653Z,97466.31
2018-11-25T19:24:04.938Z,97460.08
2018-11-25T19:26:17.161Z,97459.19
2018-11-25T19:28:29.360Z,97461.36
2018-11-25T19:30:41.655Z,97458.56
2018-11-25T19:32:53.916Z,97454.53
2018-11-25T19:35:08.133Z,97457.38
2018-11-25T19:37:20.328Z,97457.11
2018-11-25T19:39:32.620Z,97454.60
2018-11-25T19:41:44.836Z,97459.76
2018-11-25T19:43:57.075Z,97455.93
2018-11-25T19:46:09.378Z,97451.34
2018-11-25T19:48:21.622Z,97449.91
2018-11-25T19:50:35.221Z,97447.19
2018-11-25T19:52:47.516Z,97443.22
2018-11-25T19:54:59.763Z,97437.97
2018-11-25T19:57:12.088Z,97439.45
2018-11-25T19:59:24.362Z,97442.44
2018-11-25T20:01:36.625Z,97435.59
2018-11-25T20:03:48.922Z,97439.69
2018-11-25T20:06:01.185Z,97441.14
2018-11-25T20:08:13.446Z,97437.80
2018-11-25T20:10:25.876Z,97440.48
2018-11-25T20:12:40.069Z,97438.41
2018-11-25T20:14:52.205Z,97441.02
2018-11-25T20:17:10.408Z,97440.79
2018-11-25T20:19:22.617Z,97449.86
2018-11-25T20:21:40.668Z,97441.61
2018-11-25T20:23:52.934Z,97449.08
2018-11-25T20:26:05.318Z,97448.52
2018-11-25T20:28:17.619Z,97447.00
2018-11-25T20:30:31.090Z,97445.41
2018-11-25T20:32:48.854Z,97447.73
2018-11-25T20:35:01.122Z,97452.63
2018-11-25T20:37:13.394Z,97453.81
2018-11-25T20:39:29.912Z,97457.11
2018-11-25T20:41:42.144Z,97454.97
2018-11-25T20:43:54.404Z,97451.09
2018-11-25T20:47:12.386Z,97451.72
2018-11-25T20:49:24.692Z,97453.88
2018-11-25T20:51:42.535Z,97459.09
2018-11-25T20:53:58.048Z,97456.21
2018-11-25T20:56:10.391Z,97458.62
2018-11-25T20:58:22.664Z,97461.36
2018-11-25T21:00:35.167Z,97462.03
2018-11-25T21:02:47.395Z,97465.38
2018-11-25T21:04:59.676Z,97459.92
2018-11-25T21:07:11.899Z,97455.84
2018-11-25T21:09:24.142Z,97459.34
2018-11-25T21:11:36.415Z,97463.21
2018-11-25T21:13:48.661Z,97456.47
2018-11-25T21:16:00.911Z,97461.16
2018-11-25T21:18:13.143Z,97457.09
2018-11-25T21:20:25.706Z,97446.41
2018-11-25T21:22:37.953Z,97444.06
2018-11-25T21:24:50.237Z,97443.03
2018-11-25T21:27:02.439Z,97439.87
2018-11-25T21:29:14.677Z,97431.08
2018-11-25T21:31:26.940Z,97443.84
2018-11-25T21:33:39.168Z,97433.45
2018-11-25T21:35:51.403Z,97430.81
2018-11-25T21:38:03.639Z,97434.05
2018-11-25T21:40:17.844Z,97429.89
2018-11-25T21:42:30.047Z,97434.47
2018-11-25T21:44:42.275Z,97428.97
2018-11-25T21:46:54.504Z,97433.18
2018-11-25T21:49:06.746Z,97434.67
2018-11-25T21:51:19.002Z,97434.58
2018-11-25T21:53:31.226Z,97429.27
2018-11-25T21:55:43.419Z,97428.28
2018-11-25T21:57:55.650Z,97427.31
2018-11-25T22:00:10.667Z,97424.37
2018-11-25T22:02:22.948Z,97426.13
2018-11-25T22:04:35.164Z,97427.68
2018-11-25T22:06:47.395Z,97430.05
2018-11-25T22:08:59.608Z,97428.70
2018-11-25T22:11:11.789Z,97439.31
2018-11-25T22:13:24.002Z,97442.35
2018-11-25T22:15:36.192Z,97441.58
2018-11-25T22:17:48.525Z,97446.54
2018-11-25T22:20:00.759Z,97448.45
2018-11-25T22:22:13.047Z,97449.01
2018-11-25T22:24:25.264Z,97449.31
2018-11-25T22:26:37.520Z,97450.08
2018-11-25T22:28:49.728Z,97447.72
2018-11-25T22:31:01.911Z,97450.76
2018-11-25T22:33:14.134Z,97456.42
2018-11-25T22:35:26.361Z,97462.25
2018-11-25T22:37:38.513Z,97458.70
2018-11-25T22:39:50.731Z,97463.33
2018-11-25T22:42:02.931Z,97459.16
2018-11-25T22:44:15.151Z,97462.95
2018-11-25T22:46:27.352Z,97463.48
2018-11-25T22:48:39.596Z,97458.55
2018-11-25T22:50:51.868Z,97462.13
2018-11-25T22:53:04.172Z,97461.21
2018-11-25T22:55:18.515Z,97459.46
2018-11-25T22:57:30.723Z,97461.79
2018-11-25T22:59:42.958Z,97459.83
2018-11-25T23:01:55.176Z,97460.13
2018-11-25T23:04:18.896Z,97458.55
2018-11-25T23:06:42.525Z,97456.03
2018-11-25T23:08:54.734Z,97461.06
2018-11-25T23:11:06.891Z,97457.59
2018-11-25T23:13:19.076Z,97454.56
2018-11-25T23:15:31.353Z,97459.09
2018-11-25T23:17:43.532Z,97451.83
2018-11-25T23:19:55.723Z,97454.45
2018-11-25T23:22:07.913Z,97461.33
2018-11-25T23:24:20.100Z,97456.06
2018-11-25T23:26:32.374Z,97449.11
2018-11-25T23:28:44.569Z,97452.81
2018-11-25T23:30:56.747Z,97452.26
2018-11-25T23:33:08.931Z,97449.01
2018-11-25T23:35:23.227Z,97444.47
2018-11-25T23:37:35.389Z,97440.30
2018-11-25T23:39:47.651Z,97440.30
2018-11-25T23:41:59.844Z,97440.45
2018-11-25T23:44:12.096Z,97430.89
2018-11-25T23:46:24.293Z,97440.31
2018-11-25T23:48:36.481Z,97443.09
2018-11-25T23:50:48.799Z,97438.80
2018-11-25T23:53:01.050Z,97441.59
2018-11-25T23:55:13.762Z,97437.81
2018-11-25T23:57:25.975Z,97436.07
2018-11-25T23:59:38.196Z,97436.44
